Time;durP1;ratioP1;P1;durP2;ratioP2;P2;SDS_P1;SDS_P2;PMS_P1;PMS_P2;Temp;Humidity;BMP_temperature;BMP_pressure;BME280_temperature;BME280_humidity;BME280_pressure;Samples;Min_cycle;Max_cycle;Signal;HPM_P1;HPM_P2
2023/07/25 00:03:02;;;;;;;11.30;6.50;;;;;;;20.30;89.47;98882.45;179959;1260;44871;-63
2023/07/25 00:07:06;;;;;;;13.10;4.60;;;;;;;20.09;91.29;98874.02;179971;1260;44994;-62
2023/07/25 00:16:54;;;;;;;9.10;5.00;;;;;;;19.64;95.13;98873.35;180089;1260;46734;-65
2023/07/25 00:21:23;;;;;;;9.10;4.50;;;;;;;19.75;94.45;98891.66;179943;1260;44187;-63
2023/07/25 00:25:26;;;;;;;9.60;2.80;;;;;;;19.91;94.00;98896.63;180107;1261;45902;-63
2023/07/25 00:29:29;;;;;;;10.90;3.20;;;;;;;20.04;93.65;98899.77;180003;1260;45035;-62
2023/07/25 00:34:03;;;;;;;8.20;4.70;;;;;;;20.15;93.12;98905.73;179920;1260;59003;-62
2023/07/25 00:38:07;;;;;;;6.90;3.90;;;;;;;20.30;92.12;98914.18;179985;1260;45924;-62
2023/07/25 00:42:39;;;;;;;9.40;3.80;;;;;;;20.37;91.16;98908.95;180090;1260;43690;-63
2023/07/25 00:47:35;;;;;;;8.30;4.20;;;;;;;20.39;89.87;98917.90;179997;1261;43834;-62
2023/07/25 00:51:40;;;;;;;5.80;2.90;;;;;;;20.32;89.24;98927.86;179941;1260;46032;-62
2023/07/25 00:55:43;;;;;;;5.10;2.90;;;;;;;20.28;89.04;98929.73;180006;1260;58434;-62
2023/07/25 00:59:46;;;;;;;3.90;2.70;;;;;;;20.17;88.54;98933.17;180014;1260;45992;-62
2023/07/25 01:03:49;;;;;;;6.20;2.80;;;;;;;20.08;89.36;98937.39;179965;1260;43673;-63
2023/07/25 01:07:52;;;;;;;6.70;2.80;;;;;;;20.02;90.05;98940.59;179864;1260;44447;-62
2023/07/25 01:11:55;;;;;;;8.20;2.50;;;;;;;19.96;90.90;98944.27;179989;1261;45367;-62
2023/07/25 01:16:48;;;;;;;6.70;3.00;;;;;;;19.91;91.03;98948.64;180068;1260;59315;-62
2023/07/25 01:20:51;;;;;;;11.10;3.50;;;;;;;19.86;91.37;98954.61;179988;1260;45928;-62
2023/07/25 01:24:56;;;;;;;4.60;2.60;;;;;;;19.72;91.79;98953.67;180016;1259;43518;-62
2023/07/25 01:28:59;;;;;;;4.00;2.00;;;;;;;19.63;91.82;98951.73;179892;1261;45815;-63
2023/07/25 01:33:02;;;;;;;4.90;1.70;;;;;;;19.65;91.51;98944.59;179897;1261;43675;-63
2023/07/25 01:37:07;;;;;;;3.50;2.40;;;;;;;19.63;91.08;98942.95;179938;1260;58535;-62
2023/07/25 01:41:10;;;;;;;4.90;1.20;;;;;;;19.52;91.38;98933.69;179907;1260;45995;-62
2023/07/25 01:45:16;;;;;;;2.20;1.80;;;;;;;19.55;91.21;98935.20;179873;1260;45930;-63
2023/07/25 01:49:19;;;;;;;3.60;2.00;;;;;;;19.64;90.67;98935.13;179899;1260;43783;-62
2023/07/25 01:53:23;;;;;;;3.80;1.70;;;;;;;19.66;90.23;98942.52;180013;1260;45962;-62
2023/07/25 01:57:26;;;;;;;3.80;2.30;;;;;;;19.68;89.94;98951.13;179989;1260;58376;-62
2023/07/25 02:01:29;;;;;;;2.90;2.00;;;;;;;19.66;89.90;98951.68;179977;1260;46423;-62
2023/07/25 02:05:32;;;;;;;4.80;2.00;;;;;;;19.62;89.80;98956.60;180008;1260;45283;-63
2023/07/25 02:09:35;;;;;;;4.40;2.40;;;;;;;19.51;90.25;98956.88;179991;1260;43565;-62
2023/07/25 02:14:03;;;;;;;4.30;2.00;;;;;;;19.44;90.92;98954.14;179952;1262;46014;-62
2023/07/25 02:18:06;;;;;;;2.70;1.60;;;;;;;19.40;91.47;98956.16;179759;1260;58835;-62
2023/07/25 02:22:08;;;;;;;2.30;1.60;;;;;;;19.36;91.56;98956.77;179918;1260;44652;-62
2023/07/25 02:26:14;;;;;;;2.90;1.80;;;;;;;19.30;91.73;98962.93;180007;1260;43731;-61
2023/07/25 02:30:18;;;;;;;2.20;1.40;;;;;;;19.26;91.66;98973.37;179967;1260;43702;-62
2023/07/25 02:34:30;;;;;;;2.20;1.70;;;;;;;19.23;91.44;98970.92;179917;1260;43671;-62
2023/07/25 02:38:34;;;;;;;2.90;1.80;;;;;;;19.16;91.74;98970.48;180055;1260;59237;-63
2023/07/25 02:43:04;;;;;;;4.80;2.30;;;;;;;19.07;91.83;98967.83;179966;1260;45954;-62
2023/07/25 02:47:06;;;;;;;6.10;2.20;;;;;;;18.94;92.45;98977.33;179841;1260;43581;-62
2023/07/25 02:51:09;;;;;;;2.20;1.40;;;;;;;18.84;93.05;98973.70;179826;1260;43718;-61
2023/07/25 02:55:12;;;;;;;3.40;1.60;;;;;;;18.75;93.79;98975.89;179932;1260;46033;-62
2023/07/25 02:59:18;;;;;;;3.60;2.30;;;;;;;18.68;94.70;98969.64;179761;1260;59048;-62
2023/07/25 03:03:22;;;;;;;4.30;1.70;;;;;;;18.63;95.16;98966.92;179883;1260;46019;-62
2023/07/25 03:07:25;;;;;;;3.90;1.80;;;;;;;18.59;95.76;98974.80;180189;1261;43994;-61
2023/07/25 03:11:28;;;;;;;6.20;2.00;;;;;;;18.51;96.28;98979.35;180124;1260;43578;-62
2023/07/25 03:16:24;;;;;;;3.20;2.20;;;;;;;18.46;96.38;98977.60;180174;1260;45972;-62
2023/07/25 03:20:33;;;;;;;3.80;1.80;;;;;;;18.43;96.25;98980.02;180036;1260;57274;-62
2023/07/25 03:24:36;;;;;;;3.20;2.20;;;;;;;18.42;96.39;98978.36;180096;1260;45322;-61
2023/07/25 03:28:40;;;;;;;2.40;1.80;;;;;;;18.36;97.35;98971.45;180212;1261;44943;-60
2023/07/25 03:32:47;;;;;;;5.10;2.10;;;;;;;18.30;98.96;98967.49;180175;1261;46114;-61
2023/07/25 03:36:56;;;;;;;8.90;2.60;;;;;;;18.29;99.25;98965.76;180223;1260;44667;-61
2023/07/25 03:40:58;;;;;;;3.60;2.30;;;;;;;18.30;99.26;98966.00;180105;1260;59089;-61
2023/07/25 03:45:01;;;;;;;3.40;2.70;;;;;;;18.35;99.33;98969.96;180018;1260;43580;-61
2023/07/25 03:49:31;;;;;;;3.00;2.00;;;;;;;18.40;99.86;98972.32;180048;1260;45907;-61
2023/07/25 03:53:33;;;;;;;5.10;2.70;;;;;;;18.52;99.97;98972.42;179863;1261;44494;-60
2023/07/25 03:57:36;;;;;;;6.20;2.50;;;;;;;18.61;99.94;98976.66;179936;1260;43531;-61
2023/07/25 04:01:39;;;;;;;3.70;2.20;;;;;;;18.72;99.95;98968.58;179742;1257;95620;-83
2023/07/25 04:05:43;;;;;;;5.10;3.30;;;;;;;18.86;99.97;98971.46;179713;1258;46038;-82
2023/07/25 04:09:46;;;;;;;3.30;1.80;;;;;;;19.02;100.00;98978.67;178416;1259;45974;-82
2023/07/25 04:13:49;;;;;;;6.30;3.30;;;;;;;19.26;100.00;98980.41;178865;1259;44818;-82
2023/07/25 04:17:52;;;;;;;10.80;4.60;;;;;;;19.53;98.61;98983.13;178296;1258;45996;-83
2023/07/25 04:21:55;;;;;;;5.60;3.00;;;;;;;19.72;96.39;98975.26;178508;1259;58108;-83
2023/07/25 04:25:58;;;;;;;14.80;3.80;;;;;;;19.87;95.25;98975.44;179583;1258;46120;-83
2023/07/25 04:30:02;;;;;;;7.40;4.40;;;;;;;20.17;93.77;98977.60;179283;1258;45597;-82
2023/07/25 04:34:05;;;;;;;8.00;2.80;;;;;;;20.45;92.34;98984.23;178676;1259;45943;-83
2023/07/25 04:38:08;;;;;;;2.70;2.30;;;;;;;21.29;89.26;98986.05;179158;1258;46019;-83
2023/07/25 04:42:12;;;;;;;3.00;2.10;;;;;;;22.07;84.26;98997.65;179162;1259;59145;-83
2023/07/25 04:46:15;;;;;;;2.80;2.10;;;;;;;22.74;80.86;98988.60;179940;1259;44493;-83
2023/07/25 04:50:18;;;;;;;3.20;1.20;;;;;;;22.96;78.06;98975.66;179386;1256;46102;-83
2023/07/25 04:54:21;;;;;;;3.60;2.00;;;;;;;22.23;80.19;98980.65;179545;1259;44723;-83
2023/07/25 04:58:24;;;;;;;3.20;1.50;;;;;;;21.96;82.14;98973.03;179370;1259;45916;-82
2023/07/25 05:02:27;;;;;;;2.80;1.40;;;;;;;22.13;81.87;98975.66;179289;1258;58179;-83
2023/07/25 05:06:31;;;;;;;9.80;2.50;;;;;;;22.10;82.06;98981.61;179293;1258;46054;-83
2023/07/25 05:10:35;;;;;;;4.90;2.00;;;;;;;22.10;82.32;98966.71;179862;1259;46088;-83
2023/07/25 05:14:38;;;;;;;2.40;1.50;;;;;;;22.14;82.43;98976.93;179691;1260;44094;-83
2023/07/25 05:18:42;;;;;;;2.80;2.10;;;;;;;22.21;82.01;98984.73;179668;1260;44586;-83
2023/07/25 05:22:45;;;;;;;2.80;1.60;;;;;;;21.93;83.06;98991.27;179385;1259;58991;-82
2023/07/25 05:26:48;;;;;;;2.20;2.00;;;;;;;21.81;83.81;98987.16;179123;1259;46625;-83
2023/07/25 05:30:51;;;;;;;2.20;1.70;;;;;;;22.14;82.64;98984.60;179348;1259;46255;-83
2023/07/25 05:34:54;;;;;;;3.00;2.00;;;;;;;21.84;82.95;98985.02;178903;1260;46120;-83
2023/07/25 05:38:58;;;;;;;5.90;1.70;;;;;;;21.54;84.43;98978.50;178821;1259;44606;-83
2023/07/25 05:43:02;;;;;;;4.60;2.60;;;;;;;21.33;85.62;98980.56;179012;1258;57501;-83
2023/07/25 05:47:06;;;;;;;2.10;1.60;;;;;;;20.93;88.07;98997.80;178658;1260;45898;-83
2023/07/25 05:51:09;;;;;;;4.20;2.10;;;;;;;20.74;89.30;98989.23;178658;1259;45986;-83
2023/07/25 05:55:13;;;;;;;2.50;1.90;;;;;;;20.57;90.34;98993.21;178564;1262;46004;-83
2023/07/25 05:59:16;;;;;;;8.20;3.40;;;;;;;20.65;91.16;98998.04;178652;1259;46120;-83
2023/07/25 06:03:19;;;;;;;4.10;2.00;;;;;;;20.92;90.53;99002.32;178744;1258;57963;-84
2023/07/25 06:07:23;;;;;;;4.20;2.30;;;;;;;21.21;87.96;99007.96;179390;1262;44773;-83
2023/07/25 06:11:27;;;;;;;3.80;2.10;;;;;;;21.37;87.22;99008.51;179066;1259;46038;-83
2023/07/25 06:15:34;;;;;;;3.80;2.10;;;;;;;21.43;85.56;99009.42;178724;1259;46116;-82
2023/07/25 06:19:38;;;;;;;6.30;2.40;;;;;;;21.40;85.00;99015.88;178568;1259;45997;-83
2023/07/25 06:23:41;;;;;;;2.60;2.10;;;;;;;21.31;86.10;99033.02;178518;1259;57958;-84
2023/07/25 06:27:44;;;;;;;3.20;1.50;;;;;;;21.32;86.95;99041.20;179167;1259;46111;-83
2023/07/25 06:31:47;;;;;;;3.60;2.10;;;;;;;21.53;85.31;99047.46;178730;1259;45889;-83
2023/07/25 06:35:51;;;;;;;3.20;2.10;;;;;;;21.55;84.60;99053.30;178916;1262;45931;-83
2023/07/25 06:39:55;;;;;;;4.40;2.60;;;;;;;21.40;85.17;99053.37;180042;1259;43539;-83
2023/07/25 06:43:58;;;;;;;4.70;2.10;;;;;;;21.23;86.28;99049.92;179120;1260;58114;-83
2023/07/25 06:48:02;;;;;;;3.50;2.70;;;;;;;21.20;87.36;99056.52;179158;1258;46611;-83
2023/07/25 06:52:05;;;;;;;2.50;1.90;;;;;;;21.26;86.95;99058.08;178715;1259;46114;-83
2023/07/25 06:56:09;;;;;;;2.50;2.30;;;;;;;21.42;86.87;99055.76;178667;1262;46127;-83
2023/07/25 07:00:12;;;;;;;3.20;2.90;;;;;;;21.62;86.00;99053.51;179005;1259;46077;-83
2023/07/25 07:04:16;;;;;;;10.60;2.80;;;;;;;21.71;84.83;99062.54;178659;1259;58628;-82
2023/07/25 07:08:21;;;;;;;1.90;1.60;;;;;;;21.69;85.20;99059.56;178985;1258;44684;-83
2023/07/25 07:12:24;;;;;;;2.90;2.00;;;;;;;21.72;84.30;99048.95;178950;1258;46102;-83
2023/07/25 07:16:27;;;;;;;2.70;2.20;;;;;;;21.74;83.70;99038.84;178855;1259;46073;-83
2023/07/25 07:20:30;;;;;;;2.40;2.30;;;;;;;21.79;82.81;99032.11;178881;1259;46218;-83
2023/07/25 07:24:33;;;;;;;54.50;11.20;;;;;;;21.87;83.77;99033.78;179147;1259;58599;-83
2023/07/25 07:28:37;;;;;;;6.50;2.90;;;;;;;22.07;83.40;99010.41;179389;1258;46099;-83
2023/07/25 07:32:40;;;;;;;16.90;5.40;;;;;;;22.19;82.61;98992.60;179079;1259;46108;-83
2023/07/25 07:36:44;;;;;;;12.20;3.60;;;;;;;22.34;81.80;98969.59;179532;1258;45977;-83
2023/07/25 07:40:47;;;;;;;3.80;3.40;;;;;;;22.52;80.82;98954.42;179349;1259;47342;-83
2023/07/25 07:44:50;;;;;;;7.40;4.20;;;;;;;22.57;79.55;98939.35;179149;1262;59358;-83
2023/07/25 07:48:54;;;;;;;5.90;3.50;;;;;;;22.94;77.43;98941.27;179548;1259;45994;-83
2023/07/25 07:52:57;;;;;;;3.90;3.30;;;;;;;23.28;74.76;98935.84;179423;1261;46121;-83
2023/07/25 07:57:01;;;;;;;5.90;4.10;;;;;;;23.24;73.97;98949.77;179345;1258;46050;-83
2023/07/25 08:01:13;;;;;;;3.40;2.70;;;;;;;23.21;73.06;98958.92;179313;1262;46006;-83
2023/07/25 08:05:16;;;;;;;12.80;3.80;;;;;;;23.14;72.19;98966.33;179459;1259;57895;-83
2023/07/25 08:09:20;;;;;;;3.90;2.90;;;;;;;23.01;71.34;98974.79;179314;1259;47560;-83
2023/07/25 08:13:23;;;;;;;3.10;2.70;;;;;;;23.33;71.29;98974.05;179119;1259;45998;-83
2023/07/25 08:17:26;;;;;;;4.50;2.40;;;;;;;23.67;70.34;98976.80;179292;1259;45955;-83
2023/07/25 08:21:29;;;;;;;2.40;2.20;;;;;;;24.02;67.69;98985.52;179341;1259;44688;-83
2023/07/25 08:25:40;;;;;;;5.90;3.70;;;;;;;24.30;67.36;98994.00;179464;1259;60199;-83
2023/07/25 08:29:47;;;;;;;3.50;3.10;;;;;;;24.40;67.01;98996.98;179368;1258;45975;-83
2023/07/25 08:33:50;;;;;;;3.40;2.80;;;;;;;24.60;65.76;98993.19;179615;1259;44702;-83
2023/07/25 08:37:53;;;;;;;3.70;2.50;;;;;;;24.69;66.56;98996.14;179617;1259;46117;-83
2023/07/25 08:41:59;;;;;;;5.10;2.90;;;;;;;24.84;65.25;99001.00;179570;1259;46000;-83
2023/07/25 08:46:06;;;;;;;3.10;2.20;;;;;;;24.82;62.95;99002.92;179782;1259;58229;-83
2023/07/25 08:50:15;;;;;;;2.80;2.30;;;;;;;24.92;62.76;98997.18;179582;1262;45991;-83
2023/07/25 08:54:36;;;;;;;4.20;2.40;;;;;;;24.90;62.16;98990.52;179732;1258;43402;-83
2023/07/25 08:58:43;;;;;;;5.20;3.30;;;;;;;24.76;62.44;98982.02;179838;1261;44591;-83
2023/07/25 09:02:47;;;;;;;2.60;2.20;;;;;;;24.69;62.98;98985.16;180012;1262;44613;-83
2023/07/25 09:06:56;;;;;;;8.60;4.10;;;;;;;24.49;62.38;98985.54;179460;1259;58267;-83
2023/07/25 09:11:00;;;;;;;4.20;3.20;;;;;;;24.12;64.03;98976.55;179679;1258;46006;-84
2023/07/25 09:15:04;;;;;;;48.30;10.50;;;;;;;24.01;64.63;98971.80;179674;1259;46124;-83
2023/07/25 09:19:07;;;;;;;24.00;5.20;;;;;;;24.13;65.18;98984.56;179474;1259;46049;-83
2023/07/25 09:23:19;;;;;;;3.30;2.60;;;;;;;24.24;64.78;98992.13;179549;1258;45995;-83
2023/07/25 09:27:25;;;;;;;6.70;2.70;;;;;;;24.54;64.60;99001.42;179604;1259;58231;-83
2023/07/25 09:31:28;;;;;;;5.90;3.00;;;;;;;24.71;63.69;99007.77;179401;1262;44820;-83
2023/07/25 09:35:32;;;;;;;2.10;1.90;;;;;;;24.56;62.64;98999.71;179651;1259;46112;-84
2023/07/25 09:39:35;;;;;;;2.90;2.60;;;;;;;24.78;63.24;98988.45;179588;1259;46209;-83
2023/07/25 09:43:39;;;;;;;6.40;3.30;;;;;;;24.97;62.09;98984.14;179598;1259;46032;-84
2023/07/25 09:47:42;;;;;;;3.80;2.40;;;;;;;25.27;61.76;98983.73;179538;1259;58237;-83
2023/07/25 09:52:04;;;;;;;2.20;1.90;;;;;;;25.35;59.96;98976.41;179419;1258;206167;-83
2023/07/25 09:56:08;;;;;;;1.90;1.80;;;;;;;25.40;59.29;98969.49;179847;1258;45166;-84
2023/07/25 10:00:12;;;;;;;31.10;2.90;;;;;;;25.22;59.39;98974.31;179860;1258;44257;-83
2023/07/25 10:04:16;;;;;;;15.90;3.90;;;;;;;25.03;59.55;98971.05;179660;1258;45986;-83
2023/07/25 10:08:21;;;;;;;1.90;1.50;;;;;;;24.93;59.75;98965.00;180036;1259;58834;-83
2023/07/25 10:12:24;;;;;;;2.50;1.70;;;;;;;24.95;59.73;98960.17;179628;1259;44000;-83
2023/07/25 10:16:28;;;;;;;2.80;1.60;;;;;;;24.87;60.19;98965.04;179703;1258;46005;-83
2023/07/25 10:20:31;;;;;;;2.20;1.60;;;;;;;24.80;59.63;98963.31;179754;1259;45994;-83
2023/07/25 10:24:35;;;;;;;6.60;1.70;;;;;;;24.91;59.77;98954.09;179705;1259;46177;-83
2023/07/25 10:28:39;;;;;;;3.10;2.00;;;;;;;24.95;60.26;98958.02;180049;1259;58288;-83
2023/07/25 10:32:44;;;;;;;3.60;1.90;;;;;;;24.90;60.89;98959.80;179630;1259;46041;-84
2023/07/25 10:37:30;;;;;;;8.10;2.20;;;;;;;24.89;60.52;98962.23;179866;1258;46058;-83
2023/07/25 10:41:34;;;;;;;3.90;2.00;;;;;;;24.92;59.65;98959.75;179823;1259;45930;-83
2023/07/25 10:45:37;;;;;;;2.40;1.40;;;;;;;24.85;60.76;98975.77;179568;1259;46113;-83
2023/07/25 10:49:54;;;;;;;1.80;1.50;;;;;;;24.94;60.24;98972.20;179740;1259;57913;-83
2023/07/25 10:54:04;;;;;;;3.80;2.30;;;;;;;24.87;59.28;98967.60;179752;1258;44056;-83
2023/07/25 10:58:08;;;;;;;3.00;1.40;;;;;;;24.71;59.99;98969.55;179694;1258;45887;-83
2023/07/25 11:02:30;;;;;;;1.60;1.10;;;;;;;24.68;60.09;98973.64;179607;1258;43950;-83
2023/07/25 11:06:33;;;;;;;4.40;1.70;;;;;;;24.72;60.84;98971.23;179592;1259;45661;-83
2023/07/25 11:10:36;;;;;;;2.70;1.50;;;;;;;24.70;60.33;98971.47;179683;1259;60541;-83
2023/07/25 11:14:42;;;;;;;5.00;1.70;;;;;;;24.79;60.29;98969.06;179778;1258;46010;-83
2023/07/25 11:18:50;;;;;;;2.10;1.90;;;;;;;24.83;59.65;98961.06;180199;1259;44040;-83
2023/07/25 11:22:54;;;;;;;5.70;3.90;;;;;;;24.75;58.56;98963.36;179852;1259;46037;-84
2023/07/25 11:27:02;;;;;;;5.00;1.90;;;;;;;24.62;59.16;98952.77;179524;1259;44607;-83
2023/07/25 11:31:05;;;;;;;8.10;1.50;;;;;;;24.47;60.02;98940.51;179711;1262;58704;-83
2023/07/25 11:35:09;;;;;;;5.40;1.50;;;;;;;24.35;59.97;98924.20;179648;1259;46115;-83
2023/07/25 11:39:13;;;;;;;2.80;1.60;;;;;;;24.21;60.62;98915.20;179466;1259;44478;-83
2023/07/25 11:43:17;;;;;;;2.60;2.30;;;;;;;24.21;61.45;98905.48;179808;1259;46054;-83
2023/07/25 11:47:58;;;;;;;2.70;1.70;;;;;;;24.17;62.45;98901.56;179685;1260;45991;-83
2023/07/25 11:52:19;;;;;;;4.90;2.50;;;;;;;24.04;62.96;98899.69;179586;1262;58219;-83
2023/07/25 11:56:24;;;;;;;3.60;3.20;;;;;;;24.08;63.04;98901.92;179478;1261;46152;-83
2023/07/25 12:00:39;;;;;;;4.40;2.30;;;;;;;24.19;62.40;98906.92;179578;1259;46661;-83
2023/07/25 12:04:44;;;;;;;2.50;2.30;;;;;;;24.28;62.04;98917.14;179531;1259;46015;-83
2023/07/25 12:08:48;;;;;;;3.60;2.10;;;;;;;24.22;62.38;98922.50;179821;1259;44746;-83
2023/07/25 12:12:53;;;;;;;3.10;2.40;;;;;;;24.12;63.33;98927.34;179408;1262;59297;-83
2023/07/25 12:17:03;;;;;;;2.80;1.80;;;;;;;24.20;62.62;98925.56;179646;1258;44731;-83
2023/07/25 12:21:22;;;;;;;3.30;2.90;;;;;;;24.30;62.26;98920.77;179534;1259;44659;-83
2023/07/25 12:25:28;;;;;;;3.00;2.60;;;;;;;24.31;61.79;98919.03;179979;1259;46010;-84
2023/07/25 12:29:31;;;;;;;2.50;2.30;;;;;;;24.26;62.53;98920.00;179419;1258;46193;-83
2023/07/25 12:33:35;;;;;;;7.10;3.00;;;;;;;24.39;62.38;98917.24;179936;1263;57907;-83
2023/07/25 12:37:39;;;;;;;24.50;9.00;;;;;;;24.73;62.29;98909.70;179753;1259;43925;-83
2023/07/25 12:41:44;;;;;;;3.90;2.20;;;;;;;24.89;60.97;98907.67;179609;1258;46049;-84
2023/07/25 12:45:48;;;;;;;3.00;2.20;;;;;;;25.08;59.78;98901.09;179520;1260;46124;-83
2023/07/25 12:49:51;;;;;;;3.70;2.70;;;;;;;25.33;58.90;98895.73;179597;1262;46075;-83
2023/07/25 12:53:55;;;;;;;2.90;1.70;;;;;;;25.63;58.06;98888.63;179612;1260;59146;-84
2023/07/25 12:57:59;;;;;;;13.50;3.40;;;;;;;25.96;57.64;98886.30;180075;1260;46112;-83
2023/07/25 13:02:03;;;;;;;4.40;3.10;;;;;;;26.17;56.73;98876.70;179984;1259;45988;-82
2023/07/25 13:06:07;;;;;;;1.80;1.60;;;;;;;26.25;55.19;98867.71;180182;1262;46127;-82
2023/07/25 13:10:11;;;;;;;2.40;1.70;;;;;;;26.30;55.07;98860.05;180290;1262;43903;-83
2023/07/25 13:14:15;;;;;;;2.90;1.40;;;;;;;26.50;53.98;98855.83;180104;1259;59196;-83
2023/07/25 13:18:20;;;;;;;23.30;5.00;;;;;;;26.46;53.22;98847.52;180545;1259;44064;-82
2023/07/25 13:22:24;;;;;;;2.90;2.20;;;;;;;26.58;54.00;98840.43;180338;1260;43463;-83
2023/07/25 13:26:30;;;;;;;5.70;2.70;;;;;;;26.64;52.86;98839.90;180356;1262;45911;-82
2023/07/25 13:30:34;;;;;;;4.40;2.20;;;;;;;26.51;53.38;98836.53;180295;1259;45940;-82
2023/07/25 13:34:39;;;;;;;7.00;3.00;;;;;;;26.29;54.77;98836.54;180568;1259;58250;-82
2023/07/25 13:38:43;;;;;;;4.50;2.40;;;;;;;26.29;54.67;98835.95;180480;1262;44211;-82
2023/07/25 13:42:47;;;;;;;2.20;1.80;;;;;;;26.35;55.80;98834.89;180161;1258;44961;-82
2023/07/25 13:46:51;;;;;;;8.00;1.90;;;;;;;26.31;54.90;98836.39;180242;1260;44470;-83
2023/07/25 13:50:55;;;;;;;2.60;2.10;;;;;;;26.21;54.17;98831.94;180206;1259;44059;-84
2023/07/25 13:54:59;;;;;;;5.60;2.40;;;;;;;26.04;55.63;98831.38;180158;1260;57943;-83
2023/07/25 13:59:03;;;;;;;3.40;2.30;;;;;;;26.04;55.39;98821.80;180028;1258;43735;-83
2023/07/25 14:03:19;;;;;;;1.80;1.50;;;;;;;26.34;54.60;98816.95;180160;1259;46118;-83
2023/07/25 14:07:24;;;;;;;2.20;1.80;;;;;;;26.58;53.93;98814.03;180138;1262;45840;-83
2023/07/25 14:11:28;;;;;;;5.00;2.20;;;;;;;26.79;53.63;98812.89;180247;1259;46043;-83
2023/07/25 14:15:33;;;;;;;5.90;3.10;;;;;;;26.64;52.83;98820.21;180477;1261;57934;-83
2023/07/25 14:19:36;;;;;;;3.10;2.00;;;;;;;26.39;53.87;98827.00;180280;1260;50578;-83
2023/07/25 14:23:41;;;;;;;4.40;2.30;;;;;;;26.17;54.09;98829.18;180147;1259;45262;-83
2023/07/25 14:27:45;;;;;;;1.70;1.60;;;;;;;25.93;53.69;98838.39;180145;1261;44599;-83
2023/07/25 14:31:48;;;;;;;3.80;1.90;;;;;;;26.01;54.49;98837.35;180101;1262;45222;-83
2023/07/25 14:35:52;;;;;;;3.00;2.10;;;;;;;26.06;53.04;98827.90;180080;1260;59566;-83
2023/07/25 14:39:56;;;;;;;2.50;1.70;;;;;;;26.01;53.03;98823.85;180013;1263;46169;-83
2023/07/25 14:44:00;;;;;;;2.20;2.00;;;;;;;25.86;53.78;98823.81;180093;1263;43704;-83
2023/07/25 14:48:04;;;;;;;3.70;2.70;;;;;;;25.86;56.27;98822.98;180143;1262;44429;-83
2023/07/25 14:52:08;;;;;;;2.80;2.20;;;;;;;26.07;54.49;98820.98;180098;1261;44948;-83
2023/07/25 14:56:12;;;;;;;3.60;2.00;;;;;;;26.16;54.78;98817.08;180273;1259;57888;-83
2023/07/25 15:00:16;;;;;;;2.60;2.40;;;;;;;26.35;54.58;98807.25;179895;1259;45966;-83
2023/07/25 15:04:20;;;;;;;2.80;2.30;;;;;;;26.68;53.72;98797.11;180050;1260;46348;-83
2023/07/25 15:08:24;;;;;;;3.70;1.80;;;;;;;26.87;53.48;98793.28;180231;1261;43775;-83
2023/07/25 15:12:27;;;;;;;3.60;2.10;;;;;;;27.07;53.63;98785.57;180094;1260;44405;-83
2023/07/25 15:16:31;;;;;;;4.20;2.80;;;;;;;26.94;52.48;98793.14;180187;1259;58413;-83
2023/07/25 15:20:36;;;;;;;2.00;1.60;;;;;;;26.62;52.69;98793.38;179942;1259;43675;-83
2023/07/25 15:24:40;;;;;;;4.40;1.80;;;;;;;26.48;52.13;98788.77;180276;1261;45820;-83
2023/07/25 15:28:44;;;;;;;2.80;1.70;;;;;;;26.36;52.45;98785.73;179896;1257;46117;-83
2023/07/25 15:32:48;;;;;;;2.90;2.40;;;;;;;26.49;53.24;98794.00;180153;1259;44618;-83
2023/07/25 15:36:51;;;;;;;2.20;1.70;;;;;;;26.45;52.44;98803.41;180202;1259;57917;-83
2023/07/25 15:40:55;;;;;;;8.70;3.40;;;;;;;26.31;52.45;98804.99;180333;1261;45248;-83
2023/07/25 15:44:59;;;;;;;6.00;2.20;;;;;;;25.99;53.69;98816.64;180283;1261;44270;-83
2023/07/25 15:49:03;;;;;;;1.90;1.80;;;;;;;25.77;54.26;98821.20;180262;1259;44378;-83
2023/07/25 15:53:07;;;;;;;2.90;2.30;;;;;;;25.57;54.62;98820.78;180161;1259;44770;-83
2023/07/25 15:57:11;;;;;;;8.80;2.60;;;;;;;25.59;55.18;98819.48;180312;1260;59058;-82
2023/07/25 16:01:14;;;;;;;2.60;2.00;;;;;;;25.68;54.44;98826.15;180291;1257;44414;-83
2023/07/25 16:05:18;;;;;;;2.30;2.10;;;;;;;25.93;53.82;98815.37;180154;1260;43874;-83
2023/07/25 16:09:22;;;;;;;4.20;2.10;;;;;;;26.08;53.51;98800.89;180289;1260;43512;-83
2023/07/25 16:13:27;;;;;;;3.50;2.50;;;;;;;26.05;53.36;98798.04;180239;1260;44542;-82
2023/07/25 16:17:31;;;;;;;5.30;2.60;;;;;;;25.87;52.83;98798.70;180109;1259;59888;-83
2023/07/25 16:21:34;;;;;;;3.80;2.20;;;;;;;25.74;53.98;98796.61;180117;1257;46034;-83
2023/07/25 16:25:38;;;;;;;5.80;2.10;;;;;;;25.54;53.46;98805.13;180366;1263;46063;-83
2023/07/25 16:29:42;;;;;;;3.50;2.30;;;;;;;25.32;54.10;98799.33;180122;1261;45920;-82
2023/07/25 16:33:46;;;;;;;2.60;2.00;;;;;;;25.15;54.62;98801.21;180323;1260;44079;-83
2023/07/25 16:37:50;;;;;;;3.30;2.00;;;;;;;25.13;54.76;98799.66;180435;1260;58193;-83
2023/07/25 16:41:54;;;;;;;1.70;1.50;;;;;;;25.01;55.21;98803.64;180373;1260;46046;-83
2023/07/25 16:45:58;;;;;;;3.40;2.40;;;;;;;24.78;55.41;98814.98;180236;1258;43758;-83
2023/07/25 16:50:01;;;;;;;1.80;1.60;;;;;;;24.58;55.77;98825.96;180228;1263;44331;-83
2023/07/25 16:54:05;;;;;;;2.00;1.80;;;;;;;24.40;55.96;98826.78;180219;1260;45974;-83
2023/07/25 16:58:09;;;;;;;2.10;1.40;;;;;;;24.26;55.89;98825.20;179753;1260;59534;-82
2023/07/25 17:02:14;;;;;;;2.30;1.80;;;;;;;24.10;56.32;98824.75;179978;1260;44558;-82
2023/07/25 17:06:18;;;;;;;2.80;2.00;;;;;;;23.90;56.24;98823.20;179933;1262;46019;-82
2023/07/25 17:10:21;;;;;;;3.50;2.30;;;;;;;23.78;56.32;98827.59;180412;1260;46003;-82
2023/07/25 17:14:25;;;;;;;5.10;1.90;;;;;;;23.71;56.55;98825.92;179957;1262;44835;-82
2023/07/25 17:18:29;;;;;;;3.30;1.70;;;;;;;23.65;56.60;98823.94;179857;1260;58261;-83
2023/07/25 17:22:33;;;;;;;2.40;1.70;;;;;;;23.56;56.77;98830.46;180133;1260;44184;-82
2023/07/25 17:26:36;;;;;;;3.30;2.10;;;;;;;23.48;57.08;98833.50;180266;1260;44497;-82
2023/07/25 17:30:41;;;;;;;1.90;1.10;;;;;;;23.42;57.49;98833.08;180242;1260;44065;-81
2023/07/25 17:34:45;;;;;;;1.80;1.30;;;;;;;23.38;57.45;98833.48;178566;1261;46080;-86
2023/07/25 17:38:49;;;;;;;1.90;1.30;;;;;;;23.34;57.84;98833.97;177542;1263;60532;-86
2023/07/25 17:42:53;;;;;;;2.00;1.20;;;;;;;23.27;58.63;98832.17;177622;1262;46067;-86
2023/07/25 17:46:56;;;;;;;1.80;1.50;;;;;;;23.22;58.90;98836.23;177738;1260;46012;-85
2023/07/25 17:51:00;;;;;;;1.50;1.00;;;;;;;23.16;59.26;98838.52;177797;1260;46063;-87
2023/07/25 17:55:04;;;;;;;2.30;1.30;;;;;;;23.11;59.31;98841.30;178613;1261;46020;-86
2023/07/25 17:59:09;;;;;;;2.70;2.00;;;;;;;23.10;59.42;98843.02;177748;1261;59602;-86
2023/07/25 18:03:12;;;;;;;5.60;1.30;;;;;;;23.03;59.72;98847.45;177529;1260;46104;-86
2023/07/25 18:07:16;;;;;;;4.40;1.70;;;;;;;22.99;59.90;98854.48;177435;1260;46017;-87
2023/07/25 18:11:20;;;;;;;14.60;4.40;;;;;;;22.90;61.63;98872.74;177322;1260;44218;-89
2023/07/25 18:15:23;;;;;;;9.30;2.70;;;;;;;22.63;68.64;98899.00;177447;1259;46076;-88
2023/07/25 18:19:28;;;;;;;4.60;3.10;;;;;;;22.06;80.32;98905.58;177217;1260;58442;-88
2023/07/25 18:23:31;;;;;;;3.80;1.90;;;;;;;21.22;84.47;98911.48;177095;1263;44835;-88
2023/07/25 18:27:38;;;;;;;6.00;2.90;;;;;;;20.52;91.72;98930.19;177314;1260;46019;-89
2023/07/25 18:31:42;;;;;;;3.90;3.20;;;;;;;19.99;99.94;98931.35;177377;1261;46175;-88
2023/07/25 18:35:46;;;;;;;4.20;2.90;;;;;;;19.57;100.00;98938.52;178630;1260;44644;-89
2023/07/25 18:39:50;;;;;;;5.30;2.90;;;;;;;19.29;100.00;98944.83;178446;1260;59416;-89
2023/07/25 18:48:16;;;;;;;3.90;2.80;;;;;;;19.03;100.00;98968.98;177615;1260;44568;-90
2023/07/25 18:52:21;;;;;;;4.30;3.20;;;;;;;18.86;100.00;98977.27;179464;1260;45116;-91
2023/07/25 18:56:33;;;;;;;6.60;4.90;;;;;;;18.73;100.00;98980.49;179401;1258;85712;-71
2023/07/25 19:00:37;;;;;;;8.80;4.90;;;;;;;18.60;100.00;98986.16;179391;1259;60113;-70
2023/07/25 19:04:42;;;;;;;11.40;6.70;;;;;;;18.59;100.00;98994.25;180199;1259;45775;-69
2023/07/25 19:08:45;;;;;;;9.90;8.20;;;;;;;18.64;100.00;98996.21;180129;1259;45975;-69
2023/07/25 19:12:49;;;;;;;10.40;6.00;;;;;;;18.65;100.00;99003.38;180000;1260;44965;-70